Terminal Aerodrome Forecast
Issued by NWS

Home | Current Version | Previous Version | Text Only | Print | Product List | Glossary On
Versions: 1 2 3 4 5 6 7 8 9 10 11 12 13 14 15 16 17 18 19 20 21
912
FTUS41 KBGM 221750
TAFRME
TAF
KRME 221750Z 2218/2318 11006KT 6SM BR BKN015
     FM230500 10011G19KT P6SM OVC015
     FM231100 10012G21KT P6SM BKN030=

USA.gov is the U.S. government's official web portal to all federal, state and local government web resources and services.